Time;durP1;ratioP1;P1;durP2;ratioP2;P2;SDS_P1;SDS_P2;PMS_P1;PMS_P2;Temp;Humidity;BMP_temperature;BMP_pressure;BME280_temperature;BME280_humidity;BME280_pressure;Samples;Min_cycle;Max_cycle;Signal;HPM_P1;HPM_P2
2020/12/06 00:00:59;;;;;;;23.27;15.65;;;5.60;99.90;;;;;;5070382;28;20300;-75
2020/12/06 00:03:44;;;;;;;20.67;13.93;;;5.50;99.90;;;;;;5070569;28;20564;-75
2020/12/06 00:06:30;;;;;;;24.33;15.90;;;5.50;99.90;;;;;;5063143;28;20205;-75
2020/12/06 00:09:16;;;;;;;27.25;16.90;;;5.40;99.90;;;;;;5053067;28;20185;-74
2020/12/06 00:12:02;;;;;;;22.23;15.48;;;5.40;99.90;;;;;;5052505;28;20227;-75
2020/12/06 00:14:47;;;;;;;26.95;17.73;;;5.40;99.90;;;;;;5070417;28;20200;-75
2020/12/06 00:17:32;;;;;;;26.10;17.40;;;5.40;99.90;;;;;;5069918;28;20753;-75
2020/12/06 00:20:18;;;;;;;29.83;19.23;;;5.40;99.90;;;;;;5079005;28;20208;-74
2020/12/06 00:23:03;;;;;;;24.80;17.48;;;5.40;99.90;;;;;;5064843;28;20224;-74
2020/12/06 00:25:49;;;;;;;25.60;17.42;;;5.30;99.90;;;;;;5070310;28;20764;-74
2020/12/06 00:28:35;;;;;;;28.58;17.27;;;5.30;99.90;;;;;;5050286;28;20758;-74
2020/12/06 00:31:21;;;;;;;23.42;16.25;;;5.30;99.90;;;;;;5050883;28;20204;-74
2020/12/06 00:34:07;;;;;;;24.98;16.42;;;5.40;99.90;;;;;;5052854;28;20197;-75
2020/12/06 00:36:52;;;;;;;26.88;17.25;;;5.40;99.90;;;;;;5052164;28;20310;-74
2020/12/06 00:39:38;;;;;;;23.73;16.48;;;5.40;99.90;;;;;;5049653;28;20679;-75
2020/12/06 00:42:23;;;;;;;28.33;17.30;;;5.40;99.90;;;;;;5052718;28;20243;-75
2020/12/06 00:45:08;;;;;;;26.50;16.67;;;5.40;99.90;;;;;;5065443;28;20248;-75
2020/12/06 00:47:53;;;;;;;25.65;16.65;;;5.40;99.90;;;;;;5072568;28;20224;-74
2020/12/06 00:50:39;;;;;;;22.85;15.15;;;5.40;99.90;;;;;;5070972;28;20219;-75
2020/12/06 00:53:24;;;;;;;30.58;17.98;;;5.40;99.90;;;;;;5069769;28;20197;-75
2020/12/06 00:56:17;;;;;;;22.40;16.15;;;5.50;99.90;;;;;;5065549;28;20200;-74
2020/12/06 00:59:02;;;;;;;25.02;16.00;;;5.40;99.90;;;;;;5051245;28;20189;-74
2020/12/06 01:01:47;;;;;;;22.83;16.10;;;5.40;99.90;;;;;;5052406;28;20282;-74
2020/12/06 01:04:32;;;;;;;26.33;16.35;;;5.40;99.90;;;;;;5050587;28;20208;-74
2020/12/06 01:07:18;;;;;;;26.50;16.60;;;5.30;99.90;;;;;;5049552;28;20307;-74
2020/12/06 01:10:05;;;;;;;27.13;16.15;;;5.30;99.90;;;;;;5049063;28;20203;-74
2020/12/06 01:12:50;;;;;;;29.98;18.15;;;5.30;99.90;;;;;;5050441;28;20560;-75
2020/12/06 01:15:35;;;;;;;25.42;17.92;;;5.30;99.90;;;;;;5052138;28;20200;-74
2020/12/06 01:18:20;;;;;;;26.77;18.13;;;5.20;99.90;;;;;;5049206;28;20224;-74
2020/12/06 01:21:05;;;;;;;27.27;18.55;;;5.30;99.90;;;;;;5060883;28;20197;-74
2020/12/06 01:23:51;;;;;;;28.80;18.77;;;5.30;99.90;;;;;;5069276;28;20207;-74
2020/12/06 01:26:36;;;;;;;26.10;18.08;;;5.40;99.90;;;;;;5061067;28;20220;-75
2020/12/06 01:29:21;;;;;;;28.08;18.52;;;5.30;99.90;;;;;;5050641;28;20189;-75
2020/12/06 01:32:06;;;;;;;27.35;18.48;;;5.30;99.90;;;;;;5048982;28;20711;-74
2020/12/06 01:34:52;;;;;;;27.95;19.52;;;5.30;99.90;;;;;;5048920;28;20201;-75
2020/12/06 01:37:37;;;;;;;25.83;18.52;;;5.30;99.90;;;;;;5049814;28;20738;-75
2020/12/06 01:40:23;;;;;;;27.48;19.10;;;5.30;99.90;;;;;;5050924;28;20291;-75
2020/12/06 01:43:08;;;;;;;30.55;20.38;;;5.30;99.90;;;;;;5050479;28;20698;-75
2020/12/06 01:45:53;;;;;;;37.33;20.48;;;5.20;99.90;;;;;;5067298;28;20773;-74
2020/12/06 01:48:38;;;;;;;27.65;18.45;;;5.20;99.90;;;;;;5068432;28;20943;-74
2020/12/06 01:51:24;;;;;;;26.27;17.50;;;5.10;99.90;;;;;;5064957;28;20187;-74
2020/12/06 01:54:09;;;;;;;29.88;19.13;;;5.10;99.90;;;;;;5051590;28;20220;-75
2020/12/06 01:56:55;;;;;;;28.85;19.20;;;5.00;99.90;;;;;;5064888;28;20227;-74
2020/12/06 01:59:40;;;;;;;28.48;18.15;;;5.00;99.90;;;;;;5067970;28;20204;-74
2020/12/06 02:02:25;;;;;;;27.58;17.95;;;5.00;99.90;;;;;;5068535;28;20250;-75
2020/12/06 02:05:10;;;;;;;27.88;18.75;;;5.00;99.90;;;;;;5071269;28;20235;-74
2020/12/06 02:07:57;;;;;;;28.88;18.33;;;5.10;99.90;;;;;;5071108;28;20266;-74
2020/12/06 02:10:42;;;;;;;28.15;17.92;;;5.10;99.90;;;;;;5056752;28;20207;-74
2020/12/06 02:13:28;;;;;;;28.20;17.67;;;5.20;99.90;;;;;;5048519;28;20251;-74
2020/12/06 02:16:15;;;;;;;22.35;16.95;;;5.20;99.90;;;;;;5048739;28;20196;-74
2020/12/06 02:19:00;;;;;;;23.08;16.77;;;5.20;99.90;;;;;;5052831;28;20255;-74
2020/12/06 02:21:46;;;;;;;26.10;18.40;;;5.10;99.90;;;;;;5073037;28;20191;-75
2020/12/06 02:24:31;;;;;;;28.08;17.45;;;5.20;99.90;;;;;;5061467;28;20275;-76
2020/12/06 02:27:16;;;;;;;26.50;17.15;;;5.20;99.90;;;;;;5047947;28;20229;-75
2020/12/06 02:30:01;;;;;;;25.67;17.30;;;5.30;99.90;;;;;;5048975;28;20688;-75
2020/12/06 02:32:46;;;;;;;28.10;17.10;;;5.30;99.90;;;;;;5050928;28;20177;-75
2020/12/06 02:35:31;;;;;;;26.00;17.45;;;5.30;99.90;;;;;;5058900;28;20304;-74
2020/12/06 02:38:17;;;;;;;26.05;18.65;;;5.20;99.90;;;;;;5068079;28;20694;-74
2020/12/06 02:41:03;;;;;;;27.42;17.20;;;5.10;99.90;;;;;;5071001;28;20978;-75
2020/12/06 02:43:48;;;;;;;27.02;18.27;;;5.10;99.90;;;;;;5072053;28;20316;-75
2020/12/06 02:46:33;;;;;;;31.10;19.33;;;5.10;99.90;;;;;;5074834;28;20342;-74
2020/12/06 02:49:19;;;;;;;25.85;17.20;;;5.20;99.90;;;;;;5072177;28;20199;-75
2020/12/06 02:52:04;;;;;;;28.67;19.45;;;5.10;99.90;;;;;;5063717;28;20200;-76
2020/12/06 02:54:50;;;;;;;24.67;17.90;;;5.20;99.90;;;;;;5069436;28;20191;-75
2020/12/06 02:57:35;;;;;;;25.02;16.92;;;5.00;99.90;;;;;;5074681;28;20215;-74
2020/12/06 03:00:20;;;;;;;27.40;18.77;;;4.90;99.90;;;;;;5074334;28;20183;-75
2020/12/06 03:03:05;;;;;;;28.25;19.30;;;4.70;99.90;;;;;;5071893;28;20215;-75
2020/12/06 03:05:50;;;;;;;28.83;19.00;;;4.70;99.90;;;;;;5071682;28;20365;-75
2020/12/06 03:08:37;;;;;;;28.55;18.00;;;4.80;99.90;;;;;;5063059;28;20279;-75
2020/12/06 03:11:25;;;;;;;26.33;18.80;;;4.90;99.90;;;;;;5053024;28;20770;-75
2020/12/06 03:14:10;;;;;;;26.85;17.35;;;5.00;99.90;;;;;;5053731;28;20655;-75
2020/12/06 03:16:55;;;;;;;24.90;16.45;;;5.10;99.90;;;;;;5051503;28;20710;-75
2020/12/06 03:19:40;;;;;;;25.73;16.50;;;5.20;99.90;;;;;;5064361;28;20208;-75
2020/12/06 03:22:32;;;;;;;33.63;17.90;;;5.20;99.90;;;;;;5076627;28;20300;-74
2020/12/06 03:25:17;;;;;;;23.90;17.63;;;5.20;99.90;;;;;;5054276;28;20798;-74
2020/12/06 03:28:03;;;;;;;24.17;18.02;;;5.10;99.90;;;;;;5052338;28;20267;-74
2020/12/06 03:30:48;;;;;;;25.15;17.65;;;5.00;99.90;;;;;;5051108;28;20224;-75
2020/12/06 03:33:33;;;;;;;26.80;16.88;;;5.10;99.90;;;;;;5051412;28;20193;-75
2020/12/06 03:36:18;;;;;;;25.40;17.52;;;5.00;99.90;;;;;;5053692;28;20275;-75
2020/12/06 03:39:03;;;;;;;29.15;17.90;;;4.90;99.90;;;;;;5052958;28;20227;-74
2020/12/06 03:41:48;;;;;;;25.95;17.25;;;5.00;99.90;;;;;;5051922;28;20205;-75
2020/12/06 03:44:34;;;;;;;25.45;17.50;;;5.00;99.90;;;;;;5058602;28;20335;-74
2020/12/06 03:47:19;;;;;;;24.30;16.73;;;5.10;99.90;;;;;;5065132;28;20701;-75
2020/12/06 03:50:05;;;;;;;30.83;19.42;;;5.20;99.90;;;;;;5073259;28;20238;-74
2020/12/06 03:52:50;;;;;;;26.27;17.50;;;5.20;99.90;;;;;;5065957;28;20302;-75
2020/12/06 03:55:35;;;;;;;30.58;17.73;;;5.20;99.90;;;;;;5050858;28;20296;-75
2020/12/06 03:58:20;;;;;;;26.42;16.85;;;5.20;99.90;;;;;;5050915;28;20244;-74
2020/12/06 04:01:06;;;;;;;27.70;18.17;;;5.30;99.90;;;;;;5050778;28;20204;-75
2020/12/06 04:03:52;;;;;;;26.38;17.00;;;5.30;99.90;;;;;;5053505;28;20287;-74
2020/12/06 04:06:37;;;;;;;26.42;19.38;;;5.20;99.90;;;;;;5053511;28;20248;-74
2020/12/06 04:09:23;;;;;;;27.02;18.85;;;5.00;99.90;;;;;;5050482;28;20316;-75
2020/12/06 04:12:08;;;;;;;28.20;18.23;;;4.80;99.90;;;;;;5049191;28;20636;-74
2020/12/06 04:14:53;;;;;;;25.48;17.30;;;4.80;99.90;;;;;;5051926;28;20181;-75
2020/12/06 04:17:39;;;;;;;33.72;18.10;;;4.70;99.90;;;;;;5053252;28;20221;-74
2020/12/06 04:20:24;;;;;;;31.75;19.25;;;4.70;99.90;;;;;;5070031;28;20200;-74
2020/12/06 04:23:09;;;;;;;31.63;19.33;;;4.80;99.90;;;;;;5065117;28;20683;-74
2020/12/06 04:25:54;;;;;;;27.13;18.73;;;4.80;99.90;;;;;;5070442;28;20785;-74
2020/12/06 04:28:39;;;;;;;28.23;19.23;;;4.90;99.90;;;;;;5072261;28;20414;-75
2020/12/06 04:31:24;;;;;;;28.10;18.17;;;5.00;99.90;;;;;;5073074;28;20947;-75
2020/12/06 04:34:10;;;;;;;29.15;18.10;;;4.90;99.90;;;;;;5070872;28;20723;-75
2020/12/06 04:36:56;;;;;;;28.95;18.00;;;5.00;99.90;;;;;;5056526;28;20224;-75
2020/12/06 04:39:41;;;;;;;29.05;18.38;;;5.10;99.90;;;;;;5049492;28;20580;-75
2020/12/06 04:42:27;;;;;;;29.35;19.38;;;5.00;99.90;;;;;;5052878;28;20314;-74
2020/12/06 04:45:13;;;;;;;27.65;18.88;;;4.90;99.90;;;;;;5065754;28;20212;-75
2020/12/06 04:48:04;;;;;;;29.00;18.65;;;5.00;99.90;;;;;;5069683;28;20756;-75
2020/12/06 04:50:54;;;;;;;27.92;17.75;;;5.00;99.90;;;;;;5065525;28;20240;-74
2020/12/06 04:53:44;;;;;;;35.58;18.88;;;5.00;99.90;;;;;;5067073;28;20652;-74
2020/12/06 04:56:30;;;;;;;25.88;17.67;;;5.00;99.90;;;;;;5072440;28;20691;-75
2020/12/06 04:59:19;;;;;;;28.63;18.13;;;4.90;99.90;;;;;;5064025;28;20223;-75
2020/12/06 05:02:09;;;;;;;31.88;19.85;;;4.90;99.90;;;;;;5049271;28;20822;-75
2020/12/06 05:05:00;;;;;;;26.88;17.85;;;5.00;99.90;;;;;;5049005;28;20204;-74
2020/12/06 05:07:50;;;;;;;25.88;17.92;;;5.10;99.90;;;;;;5051545;28;20790;-75
2020/12/06 05:10:38;;;;;;;27.95;17.70;;;5.20;99.90;;;;;;5051786;28;20196;-75
2020/12/06 05:13:23;;;;;;;28.55;18.23;;;5.00;99.90;;;;;;5049841;28;20276;-75
2020/12/06 05:16:10;;;;;;;28.83;18.50;;;4.70;99.90;;;;;;5049303;28;20240;-75
2020/12/06 05:18:55;;;;;;;26.15;17.27;;;4.60;99.90;;;;;;5049678;28;20205;-75
2020/12/06 05:21:41;;;;;;;31.27;18.80;;;4.70;99.90;;;;;;5072431;28;20251;-74
2020/12/06 05:24:30;;;;;;;27.88;17.80;;;4.80;99.90;;;;;;5072053;28;20729;-74
2020/12/06 05:27:15;;;;;;;27.98;17.60;;;4.90;99.90;;;;;;5068732;28;20282;-74
2020/12/06 05:30:02;;;;;;;25.40;16.80;;;5.00;99.90;;;;;;5068623;28;20322;-75
2020/12/06 05:32:47;;;;;;;23.75;16.70;;;5.00;99.90;;;;;;5069815;28;20670;-74
2020/12/06 05:35:32;;;;;;;30.55;18.42;;;5.10;99.90;;;;;;5065637;28;20333;-74
2020/12/06 05:38:17;;;;;;;25.75;17.30;;;5.10;99.90;;;;;;5070670;28;20232;-75
2020/12/06 05:41:07;;;;;;;26.58;16.60;;;5.20;99.90;;;;;;5068670;28;20852;-74
2020/12/06 05:43:52;;;;;;;26.95;18.40;;;5.10;99.90;;;;;;5068678;28;20246;-75
2020/12/06 05:46:37;;;;;;;24.15;16.80;;;5.10;99.90;;;;;;5070005;28;20297;-74
2020/12/06 05:49:23;;;;;;;32.15;18.23;;;5.10;99.90;;;;;;5072003;28;20222;-75
2020/12/06 05:52:08;;;;;;;29.83;19.40;;;5.00;99.90;;;;;;5062407;28;20303;-75
2020/12/06 05:54:56;;;;;;;29.40;19.98;;;4.90;99.90;;;;;;5068656;28;20900;-75
2020/12/06 05:57:42;;;;;;;33.08;20.35;;;4.90;99.90;;;;;;5068561;28;20298;-75
2020/12/06 06:00:28;;;;;;;30.58;19.38;;;5.00;99.90;;;;;;5070588;28;20208;-74
2020/12/06 06:03:14;;;;;;;28.70;19.75;;;4.90;99.90;;;;;;5069616;28;20200;-75
2020/12/06 06:06:02;;;;;;;28.23;19.13;;;4.90;99.90;;;;;;5048562;28;20247;-75
2020/12/06 06:08:49;;;;;;;35.08;20.30;;;4.80;99.90;;;;;;5047964;28;20788;-74
2020/12/06 06:11:37;;;;;;;33.15;20.40;;;4.80;99.90;;;;;;5047192;28;20205;-75
2020/12/06 06:14:24;;;;;;;30.35;19.40;;;4.90;99.90;;;;;;5049727;28;20339;-74
2020/12/06 06:17:11;;;;;;;31.08;19.75;;;5.00;99.90;;;;;;5051062;28;20291;-74
2020/12/06 06:19:57;;;;;;;30.17;18.02;;;5.00;99.90;;;;;;5070147;28;20674;-74
2020/12/06 06:22:45;;;;;;;30.33;18.10;;;4.90;99.90;;;;;;5068137;28;20199;-75
2020/12/06 06:25:31;;;;;;;34.08;20.67;;;4.90;99.90;;;;;;5069270;28;20220;-74
2020/12/06 06:28:17;;;;;;;31.48;20.38;;;4.90;99.90;;;;;;5070685;28;20790;-75
2020/12/06 06:31:03;;;;;;;31.13;19.73;;;4.90;99.90;;;;;;5069899;28;20236;-74
2020/12/06 06:33:49;;;;;;;31.00;19.98;;;5.00;99.90;;;;;;5063298;28;20577;-75
2020/12/06 06:36:36;;;;;;;34.72;21.38;;;5.10;99.90;;;;;;5067960;28;20220;-74
2020/12/06 06:39:22;;;;;;;32.47;19.63;;;5.10;99.90;;;;;;5069789;28;20203;-74
2020/12/06 06:42:10;;;;;;;29.55;18.40;;;5.10;99.90;;;;;;5070965;28;20204;-74
2020/12/06 06:45:05;;;;;;;33.17;19.58;;;5.10;99.90;;;;;;5057916;28;20211;-75
2020/12/06 06:47:53;;;;;;;31.88;19.20;;;5.10;99.90;;;;;;5062304;28;20216;-74
2020/12/06 06:50:39;;;;;;;29.45;20.08;;;5.20;99.90;;;;;;5068294;28;20196;-74
2020/12/06 06:53:25;;;;;;;33.40;20.00;;;5.20;99.90;;;;;;5070598;28;20275;-74
2020/12/06 06:56:11;;;;;;;32.22;19.30;;;5.20;99.90;;;;;;5070901;28;20215;-74
2020/12/06 06:58:59;;;;;;;43.85;24.58;;;5.10;99.90;;;;;;5067560;28;20200;-76
2020/12/06 07:01:48;;;;;;;37.28;20.77;;;5.00;99.90;;;;;;5066471;28;20254;-75
2020/12/06 07:04:34;;;;;;;95.65;52.33;;;5.00;99.90;;;;;;5067345;28;20270;-74
2020/12/06 07:07:40;;;;;;;73.10;42.47;;;4.90;99.90;;;;;;5070570;28;20243;-74
2020/12/06 07:10:27;;;;;;;42.78;27.60;;;5.00;99.90;;;;;;5069273;28;20208;-75
2020/12/06 07:13:15;;;;;;;32.97;21.60;;;5.00;99.90;;;;;;5066776;28;20180;-74
2020/12/06 07:16:09;;;;;;;31.90;20.17;;;5.00;99.90;;;;;;5067594;28;20223;-75
2020/12/06 07:18:54;;;;;;;31.20;19.33;;;5.10;99.90;;;;;;5066304;28;20250;-75
2020/12/06 07:21:42;;;;;;;34.13;21.35;;;5.20;99.90;;;;;;5073844;28;20188;-74
2020/12/06 07:24:28;;;;;;;37.38;21.85;;;5.10;99.90;;;;;;5068385;28;20223;-75
2020/12/06 07:27:13;;;;;;;36.03;19.80;;;5.10;99.90;;;;;;5069832;28;20310;-75
2020/12/06 07:29:58;;;;;;;38.28;23.45;;;5.10;99.90;;;;;;5071069;28;20647;-74
2020/12/06 07:32:44;;;;;;;34.83;20.00;;;5.10;99.90;;;;;;5067752;28;20207;-74
2020/12/06 07:35:29;;;;;;;36.40;20.50;;;5.10;99.90;;;;;;5073943;28;20200;-75
2020/12/06 07:38:16;;;;;;;30.60;20.27;;;5.20;99.90;;;;;;5071156;28;21034;-75
2020/12/06 07:41:02;;;;;;;29.70;19.75;;;5.10;99.90;;;;;;5070882;28;20227;-75
2020/12/06 07:43:53;;;;;;;29.33;19.05;;;5.10;99.90;;;;;;5069082;28;20204;-75
2020/12/06 07:46:39;;;;;;;32.40;19.95;;;5.00;99.90;;;;;;5070082;28;20229;-73
2020/12/06 07:49:24;;;;;;;37.22;22.45;;;5.10;99.90;;;;;;5077415;28;20304;-75
2020/12/06 07:52:18;;;;;;;36.78;20.35;;;4.90;99.90;;;;;;5063467;28;20192;-74
2020/12/06 07:55:05;;;;;;;37.17;21.45;;;4.90;99.90;;;;;;5069749;28;20749;-75
2020/12/06 07:57:55;;;;;;;35.28;20.73;;;4.90;99.90;;;;;;5071631;28;20746;-75
2020/12/06 08:00:41;;;;;;;33.28;21.73;;;5.00;99.90;;;;;;5066376;28;20211;-74
2020/12/06 08:03:26;;;;;;;37.92;18.73;;;5.10;99.90;;;;;;5071837;28;20204;-75
2020/12/06 08:06:14;;;;;;;27.25;17.73;;;5.10;99.90;;;;;;5069977;28;20224;-74
2020/12/06 08:09:03;;;;;;;35.88;21.02;;;5.30;99.90;;;;;;5069803;28;20200;-75
2020/12/06 08:11:51;;;;;;;34.80;21.77;;;5.30;99.90;;;;;;5071246;28;20204;-74
2020/12/06 08:14:38;;;;;;;34.83;21.10;;;5.30;99.90;;;;;;5067420;28;20268;-75
2020/12/06 08:17:23;;;;;;;32.63;21.60;;;5.40;99.90;;;;;;5070662;28;20220;-75
2020/12/06 08:20:09;;;;;;;36.20;22.00;;;5.40;99.90;;;;;;5075768;28;20663;-74
2020/12/06 08:22:56;;;;;;;38.80;22.80;;;5.30;99.90;;;;;;5070081;28;20594;-75
2020/12/06 08:25:47;;;;;;;36.38;21.38;;;5.20;99.90;;;;;;5073064;28;20227;-75
2020/12/06 08:28:33;;;;;;;38.67;20.90;;;5.20;99.90;;;;;;5068008;28;20251;-75
2020/12/06 08:31:24;;;;;;;36.53;20.70;;;5.10;99.90;;;;;;5050123;28;20204;-75
2020/12/06 08:34:10;;;;;;;29.98;19.20;;;5.10;99.90;;;;;;5049976;28;20619;-74
2020/12/06 08:36:55;;;;;;;33.22;20.75;;;5.20;99.90;;;;;;5050608;28;20228;-75
2020/12/06 08:39:40;;;;;;;38.90;22.13;;;5.30;99.90;;;;;;5052007;28;20186;-74
2020/12/06 08:42:25;;;;;;;34.33;20.55;;;5.30;99.90;;;;;;5051565;28;20205;-75
2020/12/06 08:45:12;;;;;;;34.45;21.70;;;5.40;99.90;;;;;;5063373;28;20200;-75
2020/12/06 08:47:57;;;;;;;38.20;20.00;;;5.40;99.90;;;;;;5054450;28;20231;-75
2020/12/06 08:50:42;;;;;;;39.53;21.88;;;5.50;99.90;;;;;;5072328;28;20572;-75
2020/12/06 08:53:27;;;;;;;41.58;22.85;;;5.50;99.90;;;;;;5067455;28;20733;-75
2020/12/06 08:56:30;;;;;;;35.28;20.20;;;5.40;99.90;;;;;;5066660;28;20596;-75
2020/12/06 08:59:16;;;;;;;37.35;21.83;;;5.40;99.90;;;;;;5068888;28;20208;-75
2020/12/06 09:02:02;;;;;;;40.30;22.10;;;5.30;99.90;;;;;;5069497;28;20179;-75
2020/12/06 09:04:47;;;;;;;40.58;22.92;;;5.30;99.90;;;;;;5072023;28;20736;-75
2020/12/06 09:07:32;;;;;;;39.20;21.80;;;5.30;99.90;;;;;;5071615;28;20232;-75
2020/12/06 09:10:17;;;;;;;40.15;22.52;;;5.10;99.90;;;;;;5064576;28;20208;-75
2020/12/06 09:13:02;;;;;;;42.05;22.90;;;5.10;99.90;;;;;;5065885;28;20250;-75
2020/12/06 09:15:47;;;;;;;38.17;21.70;;;5.10;99.90;;;;;;5070067;28;20561;-75
2020/12/06 09:18:34;;;;;;;40.03;21.33;;;5.30;99.90;;;;;;5071431;28;20227;-75
2020/12/06 09:21:20;;;;;;;39.47;21.02;;;5.40;99.90;;;;;;5064508;28;20201;-75
2020/12/06 09:24:05;;;;;;;39.95;22.30;;;5.40;99.90;;;;;;5048833;28;20201;-75
2020/12/06 09:26:50;;;;;;;47.47;25.20;;;5.40;99.90;;;;;;5058078;28;20236;-75
2020/12/06 09:29:35;;;;;;;40.75;22.52;;;5.30;99.90;;;;;;5069996;28;20212;-75
2020/12/06 09:32:20;;;;;;;45.03;26.88;;;5.30;99.90;;;;;;5071483;28;20199;-74
2020/12/06 09:35:06;;;;;;;44.90;24.75;;;5.40;99.90;;;;;;5066541;28;20258;-75
2020/12/06 09:37:52;;;;;;;40.70;22.95;;;5.30;99.90;;;;;;5068090;28;20312;-75
2020/12/06 09:40:38;;;;;;;41.00;23.63;;;5.30;99.90;;;;;;5068270;28;20184;-75
2020/12/06 09:43:23;;;;;;;36.13;21.95;;;5.30;99.90;;;;;;5068988;28;20207;-75
2020/12/06 09:46:08;;;;;;;42.30;21.60;;;5.30;99.90;;;;;;5063263;28;20355;-74
2020/12/06 09:48:53;;;;;;;38.42;21.83;;;5.20;99.90;;;;;;5058397;28;20208;-75
2020/12/06 09:51:42;;;;;;;43.65;23.95;;;5.10;99.90;;;;;;5070491;28;20199;-74
2020/12/06 09:54:27;;;;;;;41.08;22.60;;;5.10;99.90;;;;;;5068623;28;20179;-75
2020/12/06 09:57:13;;;;;;;39.10;22.45;;;5.30;99.90;;;;;;5065066;28;20224;-75
2020/12/06 09:59:58;;;;;;;42.58;23.23;;;5.30;99.90;;;;;;5050439;28;20201;-75
2020/12/06 10:02:43;;;;;;;39.72;21.98;;;5.50;99.90;;;;;;5047814;28;20228;-75
2020/12/06 10:05:28;;;;;;;38.03;21.58;;;5.60;99.90;;;;;;5047666;28;20204;-75
2020/12/06 10:08:14;;;;;;;37.75;21.15;;;5.60;99.90;;;;;;5063588;28;20248;-75
2020/12/06 10:10:59;;;;;;;32.53;20.58;;;5.60;99.90;;;;;;5069659;28;20572;-74
2020/12/06 10:13:44;;;;;;;40.50;20.50;;;5.70;99.90;;;;;;5070242;28;20200;-74
2020/12/06 10:16:30;;;;;;;38.28;22.00;;;5.70;99.90;;;;;;5068245;28;20208;-75
2020/12/06 10:19:15;;;;;;;43.40;23.40;;;5.80;99.90;;;;;;5067982;28;20199;-75
2020/12/06 10:22:00;;;;;;;39.28;21.73;;;5.80;99.90;;;;;;5069907;28;20211;-75
2020/12/06 10:24:46;;;;;;;54.30;22.25;;;5.70;99.90;;;;;;5070834;28;20203;-75
2020/12/06 10:27:31;;;;;;;47.15;25.38;;;5.50;99.90;;;;;;5068844;28;20277;-75
2020/12/06 10:30:16;;;;;;;44.65;24.70;;;5.30;99.90;;;;;;5067578;28;20207;-75
2020/12/06 10:33:01;;;;;;;42.78;25.00;;;5.30;99.90;;;;;;5061427;28;20209;-75
2020/12/06 10:35:47;;;;;;;46.00;25.98;;;5.20;99.90;;;;;;5050252;28;20256;-75
2020/12/06 10:38:32;;;;;;;37.78;24.20;;;5.30;99.90;;;;;;5050460;28;20228;-74
2020/12/06 10:41:18;;;;;;;40.50;21.77;;;5.20;99.90;;;;;;5048079;28;20203;-75
2020/12/06 10:44:03;;;;;;;43.15;25.30;;;5.20;99.90;;;;;;5047632;28;20286;-75
2020/12/06 10:46:48;;;;;;;42.55;25.92;;;5.10;99.90;;;;;;5063408;28;20341;-75
2020/12/06 10:49:40;;;;;;;50.58;26.75;;;5.20;99.90;;;;;;5070531;28;20200;-75
2020/12/06 10:52:25;;;;;;;42.15;25.80;;;5.10;99.90;;;;;;5064971;28;20268;-75
2020/12/06 10:55:10;;;;;;;47.10;27.90;;;5.00;99.90;;;;;;5067667;28;20687;-74
2020/12/06 10:57:57;;;;;;;43.50;24.60;;;5.00;99.90;;;;;;5067461;28;20219;-75
2020/12/06 11:00:42;;;;;;;38.75;23.13;;;5.10;99.90;;;;;;5064073;28;20274;-75
2020/12/06 11:03:27;;;;;;;38.05;21.73;;;5.00;99.90;;;;;;5054329;28;20208;-75
2020/12/06 11:06:12;;;;;;;34.58;21.73;;;4.90;99.90;;;;;;5053417;28;20228;-75
2020/12/06 11:08:57;;;;;;;29.00;17.92;;;4.90;99.90;;;;;;5051023;28;20205;-74
2020/12/06 11:11:42;;;;;;;34.40;20.08;;;5.00;99.90;;;;;;5050318;28;20207;-75
2020/12/06 11:14:28;;;;;;;35.90;19.80;;;5.00;99.90;;;;;;5053042;28;20232;-75
2020/12/06 11:17:13;;;;;;;37.15;21.48;;;5.10;99.90;;;;;;5071707;28;20219;-74
2020/12/06 11:19:59;;;;;;;34.08;20.17;;;5.10;99.90;;;;;;5071487;28;20294;-75
2020/12/06 11:22:44;;;;;;;29.27;18.73;;;5.10;99.90;;;;;;5070993;28;20572;-75
2020/12/06 11:25:29;;;;;;;33.55;18.38;;;5.00;99.90;;;;;;5071018;28;20203;-75
2020/12/06 11:28:14;;;;;;;35.03;20.02;;;5.10;99.90;;;;;;5070299;28;20236;-76
2020/12/06 11:31:00;;;;;;;31.38;18.33;;;5.20;99.90;;;;;;5065589;28;20618;-74
2020/12/06 11:33:45;;;;;;;41.30;22.75;;;5.30;99.90;;;;;;5069879;28;20330;-75
2020/12/06 11:36:30;;;;;;;41.42;20.75;;;5.40;99.90;;;;;;5054450;28;20211;-75
2020/12/06 11:39:15;;;;;;;34.53;20.30;;;5.40;99.90;;;;;;5070507;28;20294;-74
2020/12/06 11:42:00;;;;;;;30.75;18.30;;;5.20;99.90;;;;;;5073717;28;20842;-74
2020/12/06 11:44:45;;;;;;;34.90;18.92;;;5.20;99.90;;;;;;5071393;28;20275;-75
2020/12/06 11:47:31;;;;;;;35.25;19.10;;;5.20;99.90;;;;;;5070479;28;20223;-75
2020/12/06 11:50:16;;;;;;;34.75;20.67;;;5.20;99.90;;;;;;5061596;28;20196;-75
2020/12/06 11:53:02;;;;;;;33.72;19.50;;;5.20;99.90;;;;;;5064075;28;20335;-75
2020/12/06 11:55:47;;;;;;;32.25;20.23;;;5.20;99.90;;;;;;5073224;28;20203;-76
2020/12/06 11:58:32;;;;;;;32.03;18.92;;;5.20;99.90;;;;;;5073132;28;20220;-75
2020/12/06 12:01:17;;;;;;;32.20;19.05;;;5.30;99.90;;;;;;5070716;28;20185;-75
2020/12/06 12:04:03;;;;;;;29.13;18.02;;;5.40;99.90;;;;;;5064135;28;20326;-75
2020/12/06 12:06:48;;;;;;;31.27;19.23;;;5.50;99.90;;;;;;5061238;28;20227;-74
2020/12/06 12:09:33;;;;;;;32.72;18.50;;;5.50;99.90;;;;;;5067288;28;20243;-75
2020/12/06 12:12:18;;;;;;;30.90;16.67;;;5.60;99.90;;;;;;5067280;28;20576;-75
2020/12/06 12:15:05;;;;;;;23.85;15.85;;;5.80;99.90;;;;;;5057606;28;20211;-74
2020/12/06 12:17:50;;;;;;;25.65;15.40;;;5.80;99.90;;;;;;5066873;28;20219;-75
2020/12/06 12:20:36;;;;;;;28.95;16.35;;;5.80;99.90;;;;;;5064594;28;20338;-75
2020/12/06 12:23:21;;;;;;;24.08;15.05;;;5.80;99.90;;;;;;5055688;28;20208;-74
2020/12/06 12:26:06;;;;;;;27.80;16.92;;;5.80;99.90;;;;;;5060613;28;20223;-74
2020/12/06 12:28:51;;;;;;;23.70;15.48;;;5.90;99.90;;;;;;5064986;28;20212;-75
2020/12/06 12:31:36;;;;;;;34.20;16.80;;;5.90;99.90;;;;;;5057918;28;20258;-75
2020/12/06 12:34:21;;;;;;;23.73;14.98;;;5.90;99.90;;;;;;5067563;28;20212;-75
2020/12/06 12:37:08;;;;;;;23.50;15.90;;;5.90;99.90;;;;;;5063483;28;20242;-75
2020/12/06 12:39:53;;;;;;;24.95;15.82;;;6.00;99.90;;;;;;5062374;28;20208;-75
2020/12/06 12:42:38;;;;;;;26.95;15.88;;;5.90;99.90;;;;;;5068405;28;20192;-75
2020/12/06 12:45:23;;;;;;;26.27;15.32;;;5.90;99.90;;;;;;5055335;28;20208;-74
2020/12/06 12:48:08;;;;;;;24.65;16.67;;;5.80;99.90;;;;;;5059742;28;20347;-75
2020/12/06 12:50:53;;;;;;;28.77;19.08;;;5.80;99.90;;;;;;5066308;28;20345;-74
2020/12/06 12:53:39;;;;;;;26.15;16.27;;;5.80;99.90;;;;;;5067855;28;20562;-74
2020/12/06 12:56:24;;;;;;;31.95;18.98;;;5.90;99.90;;;;;;5069607;28;20196;-74
2020/12/06 12:59:09;;;;;;;30.08;18.58;;;5.80;99.90;;;;;;5066819;28;20208;-74
2020/12/06 13:01:55;;;;;;;26.95;16.90;;;5.80;99.90;;;;;;5065061;28;20205;-75
2020/12/06 13:04:40;;;;;;;28.88;18.13;;;5.80;99.90;;;;;;5065265;28;20231;-75
2020/12/06 13:07:25;;;;;;;26.70;18.38;;;5.80;99.90;;;;;;5060626;28;20884;-75
2020/12/06 13:10:13;;;;;;;26.52;16.98;;;5.80;99.90;;;;;;5065852;28;20278;-75
2020/12/06 13:12:58;;;;;;;32.00;20.45;;;5.80;99.90;;;;;;5062263;28;20216;-74
2020/12/06 13:15:43;;;;;;;30.88;19.13;;;5.80;99.90;;;;;;5066894;28;20683;-74
2020/12/06 13:18:28;;;;;;;42.00;24.88;;;5.90;99.90;;;;;;5063473;28;20881;-75
2020/12/06 13:21:13;;;;;;;37.08;20.55;;;5.90;99.90;;;;;;5057471;28;20302;-75
2020/12/06 13:23:58;;;;;;;30.90;19.70;;;5.90;99.90;;;;;;5065490;28;20781;-74
2020/12/06 13:26:44;;;;;;;33.42;21.02;;;5.90;99.90;;;;;;5054319;28;20752;-74
2020/12/06 13:29:29;;;;;;;33.00;22.00;;;6.00;99.90;;;;;;5060587;28;20331;-74
2020/12/06 13:32:14;;;;;;;34.67;22.00;;;6.10;99.90;;;;;;5061811;28;20209;-74
2020/12/06 13:34:59;;;;;;;36.00;22.13;;;5.80;99.90;;;;;;5064883;28;20209;-73
2020/12/06 13:37:44;;;;;;;40.70;23.67;;;5.80;99.90;;;;;;5049236;28;20228;-73
2020/12/06 13:40:29;;;;;;;34.25;22.20;;;5.80;99.90;;;;;;5058091;28;20195;-74
2020/12/06 13:43:15;;;;;;;43.67;24.50;;;5.90;99.90;;;;;;5055589;28;20203;-75
2020/12/06 13:46:00;;;;;;;43.50;24.80;;;5.90;99.90;;;;;;5067050;28;20204;-75
2020/12/06 13:48:45;;;;;;;40.75;23.40;;;5.80;99.90;;;;;;5064200;28;20223;-75
2020/12/06 13:51:30;;;;;;;40.25;23.95;;;5.70;99.90;;;;;;5054897;28;20327;-75
2020/12/06 13:54:16;;;;;;;42.22;26.15;;;5.80;99.90;;;;;;5060782;28;20203;-75
2020/12/06 13:57:01;;;;;;;37.95;23.48;;;5.70;99.90;;;;;;5068654;28;20215;-75
2020/12/06 13:59:47;;;;;;;43.03;26.58;;;5.80;99.90;;;;;;5060063;28;20211;-75
2020/12/06 14:02:33;;;;;;;38.63;24.35;;;5.80;99.90;;;;;;5057001;28;20208;-75
2020/12/06 14:05:18;;;;;;;40.67;25.52;;;5.90;99.90;;;;;;5061447;28;20230;-75
2020/12/06 14:08:03;;;;;;;40.92;25.88;;;6.00;99.90;;;;;;5065531;28;20224;-75
2020/12/06 14:10:48;;;;;;;39.80;23.73;;;6.00;99.90;;;;;;5061016;28;20331;-75